sensor_id;sensor_type;location;lat;lon;timestamp;P1;durP1;ratioP1;P2;durP2;ratioP2
43297;SDS011;28892;55.640;37.532;2022-12-20T00:00:16;7.17;;;4.80;;
43297;SDS011;28892;55.640;37.532;2022-12-20T00:02:42;7.37;;;4.93;;
43297;SDS011;28892;55.640;37.532;2022-12-20T00:05:09;6.53;;;4.70;;
43297;SDS011;28892;55.640;37.532;2022-12-20T00:07:34;7.90;;;4.60;;
43297;SDS011;28892;55.640;37.532;2022-12-20T00:10:00;8.30;;;4.50;;
43297;SDS011;28892;55.640;37.532;2022-12-20T00:12:26;7.10;;;4.77;;
43297;SDS011;28892;55.640;37.532;2022-12-20T00:14:51;10.00;;;5.17;;
43297;SDS011;28892;55.640;37.532;2022-12-20T00:17:17;8.27;;;5.10;;
43297;SDS011;28892;55.640;37.532;2022-12-20T00:19:43;7.63;;;4.67;;
43297;SDS011;28892;55.640;37.532;2022-12-20T00:22:09;7.23;;;4.77;;
43297;SDS011;28892;55.640;37.532;2022-12-20T00:24:35;6.90;;;4.17;;
43297;SDS011;28892;55.640;37.532;2022-12-20T00:27:01;8.43;;;4.63;;
43297;SDS011;28892;55.640;37.532;2022-12-20T00:29:26;7.77;;;4.37;;
43297;SDS011;28892;55.640;37.532;2022-12-20T00:31:52;6.90;;;3.97;;
43297;SDS011;28892;55.640;37.532;2022-12-20T00:34:18;6.07;;;4.40;;
43297;SDS011;28892;55.640;37.532;2022-12-20T00:36:43;5.67;;;3.90;;
43297;SDS011;28892;55.640;37.532;2022-12-20T00:39:09;7.17;;;4.30;;
43297;SDS011;28892;55.640;37.532;2022-12-20T00:41:35;5.37;;;3.80;;
43297;SDS011;28892;55.640;37.532;2022-12-20T00:44:01;5.57;;;3.93;;
43297;SDS011;28892;55.640;37.532;2022-12-20T00:46:28;5.90;;;3.90;;
43297;SDS011;28892;55.640;37.532;2022-12-20T00:48:57;7.67;;;4.20;;
43297;SDS011;28892;55.640;37.532;2022-12-20T00:51:24;6.67;;;4.23;;
43297;SDS011;28892;55.640;37.532;2022-12-20T00:53:52;5.93;;;4.20;;
43297;SDS011;28892;55.640;37.532;2022-12-20T00:56:18;7.27;;;4.77;;
43297;SDS011;28892;55.640;37.532;2022-12-20T00:58:44;9.00;;;4.60;;
43297;SDS011;28892;55.640;37.532;2022-12-20T01:01:24;6.00;;;3.90;;
43297;SDS011;28892;55.640;37.532;2022-12-20T01:03:51;4.73;;;3.43;;
43297;SDS011;28892;55.640;37.532;2022-12-20T01:06:18;7.40;;;4.13;;
43297;SDS011;28892;55.640;37.532;2022-12-20T01:08:44;6.87;;;4.00;;
43297;SDS011;28892;55.640;37.532;2022-12-20T01:11:14;6.37;;;3.80;;
43297;SDS011;28892;55.640;37.532;2022-12-20T01:13:48;6.77;;;4.07;;
43297;SDS011;28892;55.640;37.532;2022-12-20T01:16:20;5.63;;;4.00;;
43297;SDS011;28892;55.640;37.532;2022-12-20T01:18:48;4.97;;;3.63;;
43297;SDS011;28892;55.640;37.532;2022-12-20T01:21:15;6.77;;;4.20;;
43297;SDS011;28892;55.640;37.532;2022-12-20T01:23:42;6.10;;;3.80;;
43297;SDS011;28892;55.640;37.532;2022-12-20T01:26:10;5.97;;;3.87;;
43297;SDS011;28892;55.640;37.532;2022-12-20T01:28:38;8.80;;;4.10;;
43297;SDS011;28892;55.640;37.532;2022-12-20T01:31:06;7.30;;;4.60;;
43297;SDS011;28892;55.640;37.532;2022-12-20T01:33:33;5.90;;;4.03;;
43297;SDS011;28892;55.640;37.532;2022-12-20T01:36:04;7.03;;;4.33;;
43297;SDS011;28892;55.640;37.532;2022-12-20T01:38:31;6.80;;;4.33;;
43297;SDS011;28892;55.640;37.532;2022-12-20T01:40:57;7.30;;;4.50;;
43297;SDS011;28892;55.640;37.532;2022-12-20T01:43:23;8.27;;;4.70;;
43297;SDS011;28892;55.640;37.532;2022-12-20T01:45:50;9.30;;;5.17;;
43297;SDS011;28892;55.640;37.532;2022-12-20T01:48:18;9.43;;;5.20;;
43297;SDS011;28892;55.640;37.532;2022-12-20T01:50:49;8.77;;;4.32;;
43297;SDS011;28892;55.640;37.532;2022-12-20T01:53:16;7.77;;;4.90;;
43297;SDS011;28892;55.640;37.532;2022-12-20T01:55:45;7.40;;;5.17;;
43297;SDS011;28892;55.640;37.532;2022-12-20T01:58:12;6.70;;;4.70;;
43297;SDS011;28892;55.640;37.532;2022-12-20T02:00:41;8.30;;;4.87;;
43297;SDS011;28892;55.640;37.532;2022-12-20T02:03:07;7.90;;;4.80;;
43297;SDS011;28892;55.640;37.532;2022-12-20T02:05:37;6.53;;;4.40;;
43297;SDS011;28892;55.640;37.532;2022-12-20T02:08:05;6.83;;;4.80;;
43297;SDS011;28892;55.640;37.532;2022-12-20T02:13:18;8.23;;;4.93;;
43297;SDS011;28892;55.640;37.532;2022-12-20T02:15:56;10.40;;;5.30;;
43297;SDS011;28892;55.640;37.532;2022-12-20T02:21:22;6.23;;;4.77;;
43297;SDS011;28892;55.640;37.532;2022-12-20T02:32:30;9.97;;;6.33;;
43297;SDS011;28892;55.640;37.532;2022-12-20T02:35:04;11.93;;;7.23;;
43297;SDS011;28892;55.640;37.532;2022-12-20T02:37:31;11.23;;;6.73;;
43297;SDS011;28892;55.640;37.532;2022-12-20T02:39:58;10.83;;;7.07;;
43297;SDS011;28892;55.640;37.532;2022-12-20T02:42:24;11.10;;;6.83;;
43297;SDS011;28892;55.640;37.532;2022-12-20T02:45:00;11.53;;;7.20;;
43297;SDS011;28892;55.640;37.532;2022-12-20T02:50:22;10.63;;;6.07;;
43297;SDS011;28892;55.640;37.532;2022-12-20T02:52:52;9.33;;;6.00;;
43297;SDS011;28892;55.640;37.532;2022-12-20T02:55:19;12.27;;;5.27;;
43297;SDS011;28892;55.640;37.532;2022-12-20T02:57:58;10.57;;;6.67;;
43297;SDS011;28892;55.640;37.532;2022-12-20T03:00:31;9.33;;;5.73;;
43297;SDS011;28892;55.640;37.532;2022-12-20T03:03:02;10.47;;;5.60;;
43297;SDS011;28892;55.640;37.532;2022-12-20T03:05:48;13.27;;;6.70;;
43297;SDS011;28892;55.640;37.532;2022-12-20T03:11:50;11.63;;;6.47;;
43297;SDS011;28892;55.640;37.532;2022-12-20T03:14:27;12.53;;;7.27;;
43297;SDS011;28892;55.640;37.532;2022-12-20T03:17:09;13.87;;;6.87;;
43297;SDS011;28892;55.640;37.532;2022-12-20T03:19:36;13.50;;;7.53;;
43297;SDS011;28892;55.640;37.532;2022-12-20T03:22:03;13.83;;;7.57;;
43297;SDS011;28892;55.640;37.532;2022-12-20T03:24:30;11.57;;;7.43;;
43297;SDS011;28892;55.640;37.532;2022-12-20T03:26:57;15.30;;;6.77;;
43297;SDS011;28892;55.640;37.532;2022-12-20T03:29:23;10.63;;;6.53;;
43297;SDS011;28892;55.640;37.532;2022-12-20T03:31:49;13.33;;;6.93;;
43297;SDS011;28892;55.640;37.532;2022-12-20T03:34:15;13.50;;;7.50;;
43297;SDS011;28892;55.640;37.532;2022-12-20T03:36:41;14.90;;;8.10;;
43297;SDS011;28892;55.640;37.532;2022-12-20T03:39:06;12.70;;;8.53;;
43297;SDS011;28892;55.640;37.532;2022-12-20T03:41:36;14.60;;;7.97;;
43297;SDS011;28892;55.640;37.532;2022-12-20T03:44:02;13.67;;;7.13;;
43297;SDS011;28892;55.640;37.532;2022-12-20T03:46:29;12.80;;;7.47;;
43297;SDS011;28892;55.640;37.532;2022-12-20T03:48:55;14.63;;;8.87;;
43297;SDS011;28892;55.640;37.532;2022-12-20T03:51:21;13.23;;;7.93;;
43297;SDS011;28892;55.640;37.532;2022-12-20T03:53:47;15.63;;;9.13;;
43297;SDS011;28892;55.640;37.532;2022-12-20T03:56:13;16.03;;;9.07;;
43297;SDS011;28892;55.640;37.532;2022-12-20T03:58:40;13.70;;;8.87;;
43297;SDS011;28892;55.640;37.532;2022-12-20T04:01:23;18.87;;;9.63;;
43297;SDS011;28892;55.640;37.532;2022-12-20T04:03:52;15.73;;;9.27;;
43297;SDS011;28892;55.640;37.532;2022-12-20T04:06:18;15.57;;;9.73;;
43297;SDS011;28892;55.640;37.532;2022-12-20T04:08:45;14.77;;;8.50;;
43297;SDS011;28892;55.640;37.532;2022-12-20T04:11:17;18.88;;;10.73;;
43297;SDS011;28892;55.640;37.532;2022-12-20T04:13:50;17.97;;;10.03;;
43297;SDS011;28892;55.640;37.532;2022-12-20T04:16:18;17.73;;;10.37;;
43297;SDS011;28892;55.640;37.532;2022-12-20T04:18:47;18.33;;;10.63;;
43297;SDS011;28892;55.640;37.532;2022-12-20T04:21:21;17.57;;;9.43;;
43297;SDS011;28892;55.640;37.532;2022-12-20T04:23:53;18.60;;;9.50;;
43297;SDS011;28892;55.640;37.532;2022-12-20T04:26:21;18.57;;;10.13;;
43297;SDS011;28892;55.640;37.532;2022-12-20T04:28:48;16.30;;;9.00;;
43297;SDS011;28892;55.640;37.532;2022-12-20T04:31:13;19.30;;;9.23;;
43297;SDS011;28892;55.640;37.532;2022-12-20T04:33:39;19.83;;;10.27;;
43297;SDS011;28892;55.640;37.532;2022-12-20T04:36:08;19.00;;;10.37;;
43297;SDS011;28892;55.640;37.532;2022-12-20T04:38:37;16.57;;;9.37;;
43297;SDS011;28892;55.640;37.532;2022-12-20T04:41:02;19.83;;;10.13;;
43297;SDS011;28892;55.640;37.532;2022-12-20T04:43:39;17.50;;;9.87;;
43297;SDS011;28892;55.640;37.532;2022-12-20T04:46:05;17.53;;;9.53;;
43297;SDS011;28892;55.640;37.532;2022-12-20T04:48:31;16.33;;;9.67;;
43297;SDS011;28892;55.640;37.532;2022-12-20T04:50:57;15.97;;;9.33;;
43297;SDS011;28892;55.640;37.532;2022-12-20T04:53:24;18.20;;;9.57;;
43297;SDS011;28892;55.640;37.532;2022-12-20T04:56:09;17.33;;;8.90;;
43297;SDS011;28892;55.640;37.532;2022-12-20T04:58:35;16.10;;;9.17;;
43297;SDS011;28892;55.640;37.532;2022-12-20T05:01:03;16.80;;;8.80;;
43297;SDS011;28892;55.640;37.532;2022-12-20T05:03:37;16.50;;;8.33;;
43297;SDS011;28892;55.640;37.532;2022-12-20T05:06:03;15.60;;;8.80;;
43297;SDS011;28892;55.640;37.532;2022-12-20T05:08:32;14.17;;;8.37;;
43297;SDS011;28892;55.640;37.532;2022-12-20T05:10:59;16.17;;;9.03;;
43297;SDS011;28892;55.640;37.532;2022-12-20T05:13:24;19.10;;;9.03;;
43297;SDS011;28892;55.640;37.532;2022-12-20T05:15:51;17.40;;;9.00;;
43297;SDS011;28892;55.640;37.532;2022-12-20T05:18:22;15.80;;;9.30;;
43297;SDS011;28892;55.640;37.532;2022-12-20T05:20:57;15.37;;;8.43;;
43297;SDS011;28892;55.640;37.532;2022-12-20T05:23:45;17.20;;;8.17;;
43297;SDS011;28892;55.640;37.532;2022-12-20T05:26:36;13.43;;;7.63;;
43297;SDS011;28892;55.640;37.532;2022-12-20T05:29:03;16.83;;;8.37;;
43297;SDS011;28892;55.640;37.532;2022-12-20T05:31:30;14.13;;;7.57;;
43297;SDS011;28892;55.640;37.532;2022-12-20T05:33:56;17.27;;;8.40;;
43297;SDS011;28892;55.640;37.532;2022-12-20T05:36:27;12.50;;;7.10;;
43297;SDS011;28892;55.640;37.532;2022-12-20T05:38:54;13.43;;;7.33;;
43297;SDS011;28892;55.640;37.532;2022-12-20T05:41:20;12.57;;;6.87;;
43297;SDS011;28892;55.640;37.532;2022-12-20T05:43:48;11.43;;;6.27;;
43297;SDS011;28892;55.640;37.532;2022-12-20T05:46:14;11.33;;;6.07;;
43297;SDS011;28892;55.640;37.532;2022-12-20T05:48:50;12.40;;;7.33;;
43297;SDS011;28892;55.640;37.532;2022-12-20T05:51:16;12.90;;;6.43;;
43297;SDS011;28892;55.640;37.532;2022-12-20T05:53:52;10.53;;;5.70;;
43297;SDS011;28892;55.640;37.532;2022-12-20T05:56:24;7.22;;;4.82;;
43297;SDS011;28892;55.640;37.532;2022-12-20T05:58:51;9.30;;;5.63;;
43297;SDS011;28892;55.640;37.532;2022-12-20T06:01:16;11.07;;;6.07;;
43297;SDS011;28892;55.640;37.532;2022-12-20T06:03:43;8.70;;;5.17;;
43297;SDS011;28892;55.640;37.532;2022-12-20T06:06:15;12.13;;;5.80;;
43297;SDS011;28892;55.640;37.532;2022-12-20T06:08:44;10.50;;;5.73;;
43297;SDS011;28892;55.640;37.532;2022-12-20T06:11:15;11.43;;;6.07;;
43297;SDS011;28892;55.640;37.532;2022-12-20T06:13:48;7.68;;;4.63;;
43297;SDS011;28892;55.640;37.532;2022-12-20T06:16:14;10.77;;;5.73;;
43297;SDS011;28892;55.640;37.532;2022-12-20T06:18:40;12.30;;;6.27;;
43297;SDS011;28892;55.640;37.532;2022-12-20T06:21:06;11.63;;;6.37;;
43297;SDS011;28892;55.640;37.532;2022-12-20T06:23:32;9.37;;;5.00;;
43297;SDS011;28892;55.640;37.532;2022-12-20T06:26:07;11.27;;;5.90;;
43297;SDS011;28892;55.640;37.532;2022-12-20T06:28:38;9.90;;;5.00;;
43297;SDS011;28892;55.640;37.532;2022-12-20T06:31:12;11.20;;;5.90;;
43297;SDS011;28892;55.640;37.532;2022-12-20T06:33:43;9.60;;;5.70;;
43297;SDS011;28892;55.640;37.532;2022-12-20T06:36:10;9.43;;;4.47;;
43297;SDS011;28892;55.640;37.532;2022-12-20T06:38:36;7.17;;;4.70;;
43297;SDS011;28892;55.640;37.532;2022-12-20T06:41:01;7.90;;;4.50;;
43297;SDS011;28892;55.640;37.532;2022-12-20T06:43:27;8.83;;;4.90;;
43297;SDS011;28892;55.640;37.532;2022-12-20T06:45:56;8.80;;;4.60;;
43297;SDS011;28892;55.640;37.532;2022-12-20T06:48:21;11.23;;;4.83;;
43297;SDS011;28892;55.640;37.532;2022-12-20T06:50:48;8.57;;;4.80;;
43297;SDS011;28892;55.640;37.532;2022-12-20T06:53:15;9.23;;;5.17;;
43297;SDS011;28892;55.640;37.532;2022-12-20T06:55:41;7.00;;;4.17;;
43297;SDS011;28892;55.640;37.532;2022-12-20T06:58:07;9.17;;;4.57;;
43297;SDS011;28892;55.640;37.532;2022-12-20T07:00:35;9.50;;;4.90;;
43297;SDS011;28892;55.640;37.532;2022-12-20T07:03:00;7.37;;;3.80;;
43297;SDS011;28892;55.640;37.532;2022-12-20T07:05:26;8.80;;;4.33;;
43297;SDS011;28892;55.640;37.532;2022-12-20T07:07:52;9.20;;;5.40;;
43297;SDS011;28892;55.640;37.532;2022-12-20T07:10:18;9.17;;;4.43;;
43297;SDS011;28892;55.640;37.532;2022-12-20T07:12:43;8.33;;;4.40;;
43297;SDS011;28892;55.640;37.532;2022-12-20T07:15:09;8.67;;;5.00;;
43297;SDS011;28892;55.640;37.532;2022-12-20T07:17:35;7.73;;;4.60;;
43297;SDS011;28892;55.640;37.532;2022-12-20T07:20:01;7.63;;;4.33;;
43297;SDS011;28892;55.640;37.532;2022-12-20T07:22:27;8.73;;;4.57;;
43297;SDS011;28892;55.640;37.532;2022-12-20T07:24:53;6.83;;;4.40;;
43297;SDS011;28892;55.640;37.532;2022-12-20T07:27:19;7.63;;;4.87;;
43297;SDS011;28892;55.640;37.532;2022-12-20T07:29:44;8.13;;;4.80;;
43297;SDS011;28892;55.640;37.532;2022-12-20T07:32:10;8.80;;;4.73;;
43297;SDS011;28892;55.640;37.532;2022-12-20T07:34:36;8.30;;;4.20;;
43297;SDS011;28892;55.640;37.532;2022-12-20T07:37:02;10.77;;;4.73;;
43297;SDS011;28892;55.640;37.532;2022-12-20T07:39:28;8.10;;;4.60;;
43297;SDS011;28892;55.640;37.532;2022-12-20T07:41:54;6.10;;;3.33;;
43297;SDS011;28892;55.640;37.532;2022-12-20T07:44:21;8.10;;;3.77;;
43297;SDS011;28892;55.640;37.532;2022-12-20T07:46:47;8.13;;;4.37;;
43297;SDS011;28892;55.640;37.532;2022-12-20T07:49:13;9.23;;;4.70;;
43297;SDS011;28892;55.640;37.532;2022-12-20T07:51:41;8.47;;;4.50;;
43297;SDS011;28892;55.640;37.532;2022-12-20T07:54:11;8.53;;;4.27;;
43297;SDS011;28892;55.640;37.532;2022-12-20T07:56:41;8.67;;;4.63;;
43297;SDS011;28892;55.640;37.532;2022-12-20T07:59:10;6.90;;;4.03;;
43297;SDS011;28892;55.640;37.532;2022-12-20T08:01:39;7.37;;;4.10;;
43297;SDS011;28892;55.640;37.532;2022-12-20T08:04:09;7.03;;;4.07;;
43297;SDS011;28892;55.640;37.532;2022-12-20T08:06:37;8.37;;;5.53;;
43297;SDS011;28892;55.640;37.532;2022-12-20T08:09:06;7.57;;;5.17;;
43297;SDS011;28892;55.640;37.532;2022-12-20T08:11:35;6.90;;;4.37;;
43297;SDS011;28892;55.640;37.532;2022-12-20T08:14:01;5.47;;;3.80;;
43297;SDS011;28892;55.640;37.532;2022-12-20T08:16:28;6.80;;;4.03;;
43297;SDS011;28892;55.640;37.532;2022-12-20T08:18:55;7.30;;;4.97;;
43297;SDS011;28892;55.640;37.532;2022-12-20T08:21:21;7.47;;;4.67;;
43297;SDS011;28892;55.640;37.532;2022-12-20T08:23:47;7.00;;;4.67;;
43297;SDS011;28892;55.640;37.532;2022-12-20T08:26:13;6.20;;;4.00;;
43297;SDS011;28892;55.640;37.532;2022-12-20T08:28:38;7.13;;;4.07;;
43297;SDS011;28892;55.640;37.532;2022-12-20T08:31:06;7.60;;;3.80;;
43297;SDS011;28892;55.640;37.532;2022-12-20T08:33:34;6.82;;;4.25;;
43297;SDS011;28892;55.640;37.532;2022-12-20T08:36:01;6.07;;;4.68;;
43297;SDS011;28892;55.640;37.532;2022-12-20T08:38:28;7.07;;;4.38;;
43297;SDS011;28892;55.640;37.532;2022-12-20T08:40:55;4.88;;;4.03;;
43297;SDS011;28892;55.640;37.532;2022-12-20T08:43:26;7.22;;;4.88;;
43297;SDS011;28892;55.640;37.532;2022-12-20T08:45:52;8.65;;;4.80;;
43297;SDS011;28892;55.640;37.532;2022-12-20T08:48:19;8.45;;;5.63;;
43297;SDS011;28892;55.640;37.532;2022-12-20T08:50:45;8.52;;;5.53;;
43297;SDS011;28892;55.640;37.532;2022-12-20T08:53:11;7.63;;;4.80;;
43297;SDS011;28892;55.640;37.532;2022-12-20T08:55:36;7.38;;;5.13;;
43297;SDS011;28892;55.640;37.532;2022-12-20T08:58:02;8.20;;;5.10;;
43297;SDS011;28892;55.640;37.532;2022-12-20T09:00:27;8.77;;;5.63;;
43297;SDS011;28892;55.640;37.532;2022-12-20T09:02:53;7.13;;;5.18;;
43297;SDS011;28892;55.640;37.532;2022-12-20T09:05:19;8.30;;;5.22;;
43297;SDS011;28892;55.640;37.532;2022-12-20T09:07:45;7.22;;;5.15;;
43297;SDS011;28892;55.640;37.532;2022-12-20T09:10:11;8.63;;;5.00;;
43297;SDS011;28892;55.640;37.532;2022-12-20T09:12:38;9.57;;;5.63;;
43297;SDS011;28892;55.640;37.532;2022-12-20T09:15:04;8.82;;;5.63;;
43297;SDS011;28892;55.640;37.532;2022-12-20T09:17:30;6.97;;;4.70;;
43297;SDS011;28892;55.640;37.532;2022-12-20T09:19:55;8.45;;;5.30;;
43297;SDS011;28892;55.640;37.532;2022-12-20T09:22:21;9.32;;;5.20;;
43297;SDS011;28892;55.640;37.532;2022-12-20T09:24:47;7.47;;;4.63;;
43297;SDS011;28892;55.640;37.532;2022-12-20T09:27:13;7.63;;;4.72;;
43297;SDS011;28892;55.640;37.532;2022-12-20T09:29:39;7.13;;;4.22;;
43297;SDS011;28892;55.640;37.532;2022-12-20T09:32:05;5.35;;;4.30;;
43297;SDS011;28892;55.640;37.532;2022-12-20T09:34:31;6.22;;;4.68;;
43297;SDS011;28892;55.640;37.532;2022-12-20T09:36:57;5.30;;;4.05;;
43297;SDS011;28892;55.640;37.532;2022-12-20T09:39:22;5.45;;;3.75;;
43297;SDS011;28892;55.640;37.532;2022-12-20T09:41:48;7.50;;;4.40;;
43297;SDS011;28892;55.640;37.532;2022-12-20T09:44:15;5.97;;;4.10;;
43297;SDS011;28892;55.640;37.532;2022-12-20T09:46:42;6.90;;;4.40;;
43297;SDS011;28892;55.640;37.532;2022-12-20T09:49:13;5.43;;;4.15;;
43297;SDS011;28892;55.640;37.532;2022-12-20T09:59:48;5.88;;;4.20;;
43297;SDS011;28892;55.640;37.532;2022-12-20T10:02:14;6.60;;;4.00;;
43297;SDS011;28892;55.640;37.532;2022-12-20T10:12:34;6.03;;;4.18;;
43297;SDS011;28892;55.640;37.532;2022-12-20T10:16:24;6.47;;;3.88;;
43297;SDS011;28892;55.640;37.532;2022-12-20T10:19:19;6.00;;;4.03;;
43297;SDS011;28892;55.640;37.532;2022-12-20T10:24:31;8.77;;;4.80;;
43297;SDS011;28892;55.640;37.532;2022-12-20T10:27:11;6.88;;;5.10;;
43297;SDS011;28892;55.640;37.532;2022-12-20T10:29:41;5.72;;;4.32;;
43297;SDS011;28892;55.640;37.532;2022-12-20T10:32:13;6.57;;;4.80;;
43297;SDS011;28892;55.640;37.532;2022-12-20T10:37:36;6.80;;;4.60;;
43297;SDS011;28892;55.640;37.532;2022-12-20T10:40:02;7.63;;;4.72;;
43297;SDS011;28892;55.640;37.532;2022-12-20T10:42:33;6.32;;;4.70;;
43297;SDS011;28892;55.640;37.532;2022-12-20T10:45:00;7.05;;;4.85;;
43297;SDS011;28892;55.640;37.532;2022-12-20T10:47:35;6.60;;;4.75;;
43297;SDS011;28892;55.640;37.532;2022-12-20T10:50:23;7.05;;;4.40;;
43297;SDS011;28892;55.640;37.532;2022-12-20T10:55:50;12.57;;;5.20;;
43297;SDS011;28892;55.640;37.532;2022-12-20T11:01:01;9.07;;;4.80;;
43297;SDS011;28892;55.640;37.532;2022-12-20T11:03:29;5.20;;;3.90;;
43297;SDS011;28892;55.640;37.532;2022-12-20T11:08:23;5.57;;;3.73;;
43297;SDS011;28892;55.640;37.532;2022-12-20T11:10:49;8.67;;;4.37;;
43297;SDS011;28892;55.640;37.532;2022-12-20T11:13:22;6.60;;;4.07;;
43297;SDS011;28892;55.640;37.532;2022-12-20T11:15:54;6.00;;;3.80;;
43297;SDS011;28892;55.640;37.532;2022-12-20T11:20:59;5.53;;;4.13;;
43297;SDS011;28892;55.640;37.532;2022-12-20T11:23:49;6.07;;;4.17;;
43297;SDS011;28892;55.640;37.532;2022-12-20T11:32:14;6.75;;;4.28;;
43297;SDS011;28892;55.640;37.532;2022-12-20T11:35:10;5.20;;;3.93;;
43297;SDS011;28892;55.640;37.532;2022-12-20T11:40:36;6.87;;;4.00;;
43297;SDS011;28892;55.640;37.532;2022-12-20T11:51:46;5.53;;;3.73;;
43297;SDS011;28892;55.640;37.532;2022-12-20T11:57:09;7.63;;;4.23;;
43297;SDS011;28892;55.640;37.532;2022-12-20T12:02:17;7.20;;;4.00;;
43297;SDS011;28892;55.640;37.532;2022-12-20T12:04:54;8.00;;;4.47;;
43297;SDS011;28892;55.640;37.532;2022-12-20T12:07:26;10.47;;;4.40;;
43297;SDS011;28892;55.640;37.532;2022-12-20T12:12:37;6.67;;;3.87;;
43297;SDS011;28892;55.640;37.532;2022-12-20T12:20:35;5.83;;;3.90;;
43297;SDS011;28892;55.640;37.532;2022-12-20T12:25:54;6.17;;;3.73;;
43297;SDS011;28892;55.640;37.532;2022-12-20T12:28:20;5.27;;;3.80;;
43297;SDS011;28892;55.640;37.532;2022-12-20T12:30:48;7.17;;;4.10;;
43297;SDS011;28892;55.640;37.532;2022-12-20T12:33:25;7.50;;;4.10;;
43297;SDS011;28892;55.640;37.532;2022-12-20T12:41:20;8.30;;;4.60;;
43297;SDS011;28892;55.640;37.532;2022-12-20T12:46:57;9.67;;;4.30;;
43297;SDS011;28892;55.640;37.532;2022-12-20T12:49:26;7.23;;;4.37;;
43297;SDS011;28892;55.640;37.532;2022-12-20T12:51:58;7.40;;;4.00;;
43297;SDS011;28892;55.640;37.532;2022-12-20T12:54:39;7.97;;;4.65;;
43297;SDS011;28892;55.640;37.532;2022-12-20T12:57:09;12.17;;;5.03;;
43297;SDS011;28892;55.640;37.532;2022-12-20T13:07:41;6.47;;;4.33;;
43297;SDS011;28892;55.640;37.532;2022-12-20T13:12:47;9.83;;;4.80;;
43297;SDS011;28892;55.640;37.532;2022-12-20T13:25:44;7.00;;;4.30;;
43297;SDS011;28892;55.640;37.532;2022-12-20T13:41:11;7.13;;;4.00;;
43297;SDS011;28892;55.640;37.532;2022-12-20T13:50:22;7.83;;;4.73;;
43297;SDS011;28892;55.640;37.532;2022-12-20T13:52:51;9.27;;;4.80;;
43297;SDS011;28892;55.640;37.532;2022-12-20T13:55:25;7.60;;;4.47;;
43297;SDS011;28892;55.640;37.532;2022-12-20T13:58:17;8.93;;;4.93;;
43297;SDS011;28892;55.640;37.532;2022-12-20T14:00:44;7.33;;;5.13;;
43297;SDS011;28892;55.640;37.532;2022-12-20T14:03:13;9.97;;;5.53;;
43297;SDS011;28892;55.640;37.532;2022-12-20T14:05:41;9.20;;;5.43;;
43297;SDS011;28892;55.640;37.532;2022-12-20T14:08:08;9.43;;;5.67;;
43297;SDS011;28892;55.640;37.532;2022-12-20T14:10:45;12.90;;;5.70;;
43297;SDS011;28892;55.640;37.532;2022-12-20T14:13:25;11.07;;;5.73;;
43297;SDS011;28892;55.640;37.532;2022-12-20T14:15:52;12.93;;;5.57;;
43297;SDS011;28892;55.640;37.532;2022-12-20T14:18:22;8.73;;;5.03;;
43297;SDS011;28892;55.640;37.532;2022-12-20T14:20:57;10.70;;;6.00;;
43297;SDS011;28892;55.640;37.532;2022-12-20T14:26:21;12.68;;;6.45;;
43297;SDS011;28892;55.640;37.532;2022-12-20T14:28:59;10.43;;;6.10;;
43297;SDS011;28892;55.640;37.532;2022-12-20T14:34:28;9.47;;;5.23;;
43297;SDS011;28892;55.640;37.532;2022-12-20T14:42:38;10.13;;;6.20;;
43297;SDS011;28892;55.640;37.532;2022-12-20T14:47:31;11.57;;;6.73;;
43297;SDS011;28892;55.640;37.532;2022-12-20T14:49:57;10.87;;;6.53;;
43297;SDS011;28892;55.640;37.532;2022-12-20T14:53:18;10.70;;;6.27;;
43297;SDS011;28892;55.640;37.532;2022-12-20T14:56:46;8.73;;;5.80;;
43297;SDS011;28892;55.640;37.532;2022-12-20T14:59:48;11.55;;;6.00;;
43297;SDS011;28892;55.640;37.532;2022-12-20T15:02:33;9.70;;;5.90;;
43297;SDS011;28892;55.640;37.532;2022-12-20T15:08:13;11.17;;;6.00;;
43297;SDS011;28892;55.640;37.532;2022-12-20T15:10:56;11.83;;;6.47;;
43297;SDS011;28892;55.640;37.532;2022-12-20T15:13:36;12.10;;;6.90;;
43297;SDS011;28892;55.640;37.532;2022-12-20T15:18:56;12.63;;;6.50;;
43297;SDS011;28892;55.640;37.532;2022-12-20T15:21:30;10.70;;;6.53;;
43297;SDS011;28892;55.640;37.532;2022-12-20T15:24:01;12.73;;;6.93;;
43297;SDS011;28892;55.640;37.532;2022-12-20T15:26:32;10.47;;;6.47;;
43297;SDS011;28892;55.640;37.532;2022-12-20T15:28:58;12.20;;;6.63;;
43297;SDS011;28892;55.640;37.532;2022-12-20T15:31:25;12.07;;;6.73;;
43297;SDS011;28892;55.640;37.532;2022-12-20T15:33:53;10.53;;;6.53;;
43297;SDS011;28892;55.640;37.532;2022-12-20T15:36:26;10.17;;;5.67;;
43297;SDS011;28892;55.640;37.532;2022-12-20T15:38:56;10.90;;;6.17;;
43297;SDS011;28892;55.640;37.532;2022-12-20T15:41:32;11.67;;;5.83;;
43297;SDS011;28892;55.640;37.532;2022-12-20T15:44:05;11.00;;;6.20;;
43297;SDS011;28892;55.640;37.532;2022-12-20T15:46:35;11.93;;;6.27;;
43297;SDS011;28892;55.640;37.532;2022-12-20T15:49:04;10.20;;;6.03;;
43297;SDS011;28892;55.640;37.532;2022-12-20T15:51:44;10.00;;;5.50;;
43297;SDS011;28892;55.640;37.532;2022-12-20T15:54:17;12.13;;;5.90;;
43297;SDS011;28892;55.640;37.532;2022-12-20T15:57:03;10.23;;;5.90;;
43297;SDS011;28892;55.640;37.532;2022-12-20T15:59:33;11.27;;;5.30;;
43297;SDS011;28892;55.640;37.532;2022-12-20T16:02:00;11.20;;;5.80;;
43297;SDS011;28892;55.640;37.532;2022-12-20T16:04:26;8.87;;;5.37;;
43297;SDS011;28892;55.640;37.532;2022-12-20T16:06:55;9.90;;;5.93;;
43297;SDS011;28892;55.640;37.532;2022-12-20T16:09:24;9.37;;;5.83;;
43297;SDS011;28892;55.640;37.532;2022-12-20T16:11:50;10.70;;;5.20;;
43297;SDS011;28892;55.640;37.532;2022-12-20T16:14:18;9.40;;;5.37;;
43297;SDS011;28892;55.640;37.532;2022-12-20T16:17:05;9.13;;;5.27;;
43297;SDS011;28892;55.640;37.532;2022-12-20T16:19:47;12.47;;;5.50;;
43297;SDS011;28892;55.640;37.532;2022-12-20T16:22:19;10.37;;;5.43;;
43297;SDS011;28892;55.640;37.532;2022-12-20T16:24:57;10.63;;;5.70;;
43297;SDS011;28892;55.640;37.532;2022-12-20T16:27:40;9.73;;;5.68;;
43297;SDS011;28892;55.640;37.532;2022-12-20T16:30:31;9.93;;;5.77;;
43297;SDS011;28892;55.640;37.532;2022-12-20T16:32:57;9.63;;;6.20;;
43297;SDS011;28892;55.640;37.532;2022-12-20T16:35:28;11.00;;;6.47;;
43297;SDS011;28892;55.640;37.532;2022-12-20T16:38:05;9.37;;;5.53;;
43297;SDS011;28892;55.640;37.532;2022-12-20T16:40:31;8.77;;;5.53;;
43297;SDS011;28892;55.640;37.532;2022-12-20T16:42:58;10.03;;;6.27;;
43297;SDS011;28892;55.640;37.532;2022-12-20T16:45:30;10.13;;;5.83;;
43297;SDS011;28892;55.640;37.532;2022-12-20T16:47:57;10.13;;;5.67;;
43297;SDS011;28892;55.640;37.532;2022-12-20T16:50:24;8.40;;;5.37;;
43297;SDS011;28892;55.640;37.532;2022-12-20T16:52:52;9.87;;;5.80;;
43297;SDS011;28892;55.640;37.532;2022-12-20T16:55:22;10.13;;;5.53;;
43297;SDS011;28892;55.640;37.532;2022-12-20T16:57:50;13.53;;;5.63;;
43297;SDS011;28892;55.640;37.532;2022-12-20T17:00:21;10.63;;;5.63;;
43297;SDS011;28892;55.640;37.532;2022-12-20T17:02:49;9.10;;;5.47;;
43297;SDS011;28892;55.640;37.532;2022-12-20T17:05:20;10.77;;;5.70;;
43297;SDS011;28892;55.640;37.532;2022-12-20T17:07:48;10.00;;;6.15;;
43297;SDS011;28892;55.640;37.532;2022-12-20T17:10:14;13.33;;;6.87;;
43297;SDS011;28892;55.640;37.532;2022-12-20T17:12:41;14.67;;;5.90;;
43297;SDS011;28892;55.640;37.532;2022-12-20T17:15:14;10.03;;;6.07;;
43297;SDS011;28892;55.640;37.532;2022-12-20T17:17:52;10.43;;;5.80;;
43297;SDS011;28892;55.640;37.532;2022-12-20T17:20:18;11.80;;;6.70;;